createdAt,value
2019-04-14T00:00:03.687Z,10.20
2019-04-14T00:02:38.406Z,10.20
2019-04-14T00:05:08.279Z,10.10
2019-04-14T00:07:36.293Z,10.10
2019-04-14T00:10:07.117Z,10.10
2019-04-14T00:12:34.481Z,10.10
2019-04-14T00:15:02.496Z,10.10
2019-04-14T00:17:30.620Z,10.10
2019-04-14T00:19:58.800Z,10.10
2019-04-14T00:22:28.065Z,10.10
2019-04-14T00:24:55.662Z,10.10
2019-04-14T00:27:23.610Z,10.00
2019-04-14T00:29:51.010Z,10.10
2019-04-14T00:32:18.353Z,10.10
2019-04-14T00:35:21.022Z,10.00
2019-04-14T00:38:19.919Z,10.00
2019-04-14T00:40:54.446Z,10.00
2019-04-14T00:43:43.914Z,9.90
2019-04-14T00:46:17.398Z,9.80
2019-04-14T00:48:45.876Z,9.80
2019-04-14T00:51:13.470Z,9.90
2019-04-14T00:53:41.061Z,9.80
2019-04-14T00:56:10.492Z,9.80
2019-04-14T00:58:39.070Z,9.80
2019-04-14T01:01:06.956Z,9.80
2019-04-14T01:03:35.162Z,9.80
2019-04-14T01:06:03.251Z,9.80
2019-04-14T01:08:31.433Z,9.80
2019-04-14T01:10:58.892Z,9.80
2019-04-14T01:13:26.763Z,9.80
2019-04-14T01:16:00.774Z,9.80
2019-04-14T01:18:23.584Z,9.80
2019-04-14T01:20:51.418Z,9.80
2019-04-14T01:23:19.346Z,9.80
2019-04-14T01:25:47.734Z,9.80
2019-04-14T01:28:15.844Z,9.90
2019-04-14T01:30:43.735Z,9.80
2019-04-14T01:33:11.907Z,9.80
2019-04-14T01:35:40.001Z,9.80
2019-04-14T01:38:08.001Z,9.80
2019-04-14T01:40:35.949Z,9.70
2019-04-14T01:43:03.803Z,9.60
2019-04-14T01:45:31.722Z,9.60
2019-04-14T01:47:59.590Z,9.50
2019-04-14T01:50:45.253Z,9.50
2019-04-14T01:53:22.894Z,9.50
2019-04-14T01:55:59.568Z,9.50
2019-04-14T01:58:31.654Z,9.50
2019-04-14T02:01:19.564Z,9.50
2019-04-14T02:03:47.782Z,9.50
2019-04-14T02:06:15.770Z,9.50
2019-04-14T02:08:43.663Z,9.50
2019-04-14T02:11:12.222Z,9.50
2019-04-14T02:13:39.718Z,9.50
2019-04-14T02:16:18.477Z,9.50
2019-04-14T02:18:38.386Z,9.50
2019-04-14T02:21:06.442Z,9.50
2019-04-14T02:23:34.385Z,9.50
2019-04-14T02:26:02.264Z,9.40
2019-04-14T02:28:30.927Z,9.40
2019-04-14T02:31:10.483Z,9.50
2019-04-14T02:33:55.202Z,9.50
2019-04-14T02:36:41.561Z,9.50
2019-04-14T02:41:30.018Z,9.50
2019-04-14T02:44:00.049Z,9.50
2019-04-14T02:46:20.485Z,9.50
2019-04-14T02:51:21.120Z,9.50
2019-04-14T02:53:51.306Z,9.50
2019-04-14T02:56:23.835Z,9.40
2019-04-14T03:01:31.641Z,9.40
2019-04-14T03:03:43.450Z,9.40
2019-04-14T03:06:16.243Z,9.30
2019-04-14T03:11:11.825Z,9.30
2019-04-14T03:13:45.551Z,9.30
2019-04-14T03:16:17.513Z,9.30
2019-04-14T03:19:16.912Z,9.30
2019-04-14T03:22:06.893Z,9.30
2019-04-14T03:24:37.158Z,9.30
2019-04-14T03:27:31.178Z,9.30
2019-04-14T03:30:33.547Z,9.30
2019-04-14T03:33:05.273Z,9.30
2019-04-14T03:35:44.087Z,9.30
2019-04-14T03:40:13.912Z,9.20
2019-04-14T03:42:45.799Z,9.20
2019-04-14T03:45:09.319Z,9.10
2019-04-14T03:47:34.699Z,9.10
2019-04-14T03:50:06.155Z,9.10
2019-04-14T03:52:43.794Z,9.00
2019-04-14T03:54:56.779Z,9.00
2019-04-14T03:57:10.834Z,8.90
2019-04-14T03:59:39.110Z,8.90
2019-04-14T04:02:07.455Z,8.90
2019-04-14T04:04:36.186Z,8.90
2019-04-14T04:07:03.885Z,8.90
2019-04-14T04:09:36.435Z,8.90
2019-04-14T04:12:05.178Z,8.90
2019-04-14T04:14:33.448Z,9.00
2019-04-14T04:17:16.962Z,8.90
2019-04-14T04:19:49.271Z,8.90
2019-04-14T04:22:35.360Z,8.90
2019-04-14T04:25:20.684Z,8.90
2019-04-14T04:28:05.987Z,8.90
2019-04-14T04:30:56.415Z,8.90
2019-04-14T04:33:30.582Z,8.90
2019-04-14T04:36:05.252Z,8.80
2019-04-14T04:38:53.307Z,8.80
2019-04-14T04:41:21.011Z,8.90
2019-04-14T04:43:49.400Z,8.80
2019-04-14T04:46:17.690Z,8.80
2019-04-14T04:48:58.271Z,8.80
2019-04-14T04:51:14.457Z,8.80
2019-04-14T04:53:41.994Z,8.80
2019-04-14T04:56:10.045Z,8.80
2019-04-14T04:58:37.489Z,8.80
2019-04-14T05:01:05.872Z,8.80
2019-04-14T05:03:34.001Z,8.80
2019-04-14T05:06:48.429Z,8.80
2019-04-14T05:09:21.038Z,8.80
2019-04-14T05:12:06.704Z,8.80
2019-04-14T05:14:41.781Z,8.80
2019-04-14T05:17:10.178Z,8.80
2019-04-14T05:19:39.329Z,8.80
2019-04-14T05:22:07.013Z,8.70
2019-04-14T05:24:35.349Z,8.70
2019-04-14T05:27:03.619Z,8.70
2019-04-14T05:29:31.832Z,8.70
2019-04-14T05:32:00.131Z,8.70
2019-04-14T05:34:28.343Z,8.70
2019-04-14T05:36:56.390Z,8.70
2019-04-14T05:39:24.299Z,8.70
2019-04-14T05:42:00.479Z,8.70
2019-04-14T05:44:23.161Z,8.70
2019-04-14T05:46:51.415Z,8.80
2019-04-14T05:49:28.690Z,8.80
2019-04-14T05:51:48.291Z,8.90
2019-04-14T05:54:16.325Z,8.90
2019-04-14T05:56:44.732Z,8.90
2019-04-14T05:59:13.422Z,8.90
2019-04-14T06:01:42.103Z,8.90
2019-04-14T06:04:09.589Z,8.90
2019-04-14T06:06:36.983Z,9.00
2019-04-14T06:09:05.912Z,9.00
2019-04-14T06:11:33.305Z,9.00
2019-04-14T06:14:01.394Z,9.00
2019-04-14T06:16:29.336Z,9.00
2019-04-14T06:18:56.815Z,9.00
2019-04-14T06:21:24.263Z,8.90
2019-04-14T06:23:51.663Z,8.90
2019-04-14T06:26:19.145Z,8.80
2019-04-14T06:28:48.351Z,8.80
2019-04-14T06:31:27.086Z,8.80
2019-04-14T06:33:59.725Z,8.80
2019-04-14T06:36:38.147Z,8.80
2019-04-14T06:39:09.821Z,8.80
2019-04-14T06:41:38.482Z,8.80
2019-04-14T06:44:05.858Z,8.80
2019-04-14T06:46:33.135Z,8.80
2019-04-14T06:49:00.464Z,8.80
2019-04-14T06:51:27.935Z,8.80
2019-04-14T06:53:55.340Z,8.90
2019-04-14T06:56:22.626Z,8.90
2019-04-14T06:58:49.814Z,8.90
2019-04-14T07:01:17.136Z,9.00
2019-04-14T07:03:44.471Z,9.10
2019-04-14T07:06:11.755Z,9.20
2019-04-14T07:08:39.091Z,9.20
2019-04-14T07:11:06.413Z,9.40
2019-04-14T07:13:33.726Z,9.40
2019-04-14T07:16:01.033Z,9.50
2019-04-14T07:18:28.383Z,9.60
2019-04-14T07:20:55.788Z,9.70
2019-04-14T07:23:23.077Z,9.80
2019-04-14T07:25:50.453Z,9.90
2019-04-14T07:28:17.749Z,10.00
2019-04-14T07:31:04.709Z,10.10
2019-04-14T07:33:40.700Z,10.20
2019-04-14T07:36:17.784Z,10.30
2019-04-14T07:38:52.309Z,10.40
2019-04-14T07:41:28.675Z,10.40
2019-04-14T07:44:15.646Z,10.50
2019-04-14T07:46:55.559Z,10.50
2019-04-14T07:49:42.706Z,10.50
2019-04-14T07:52:22.265Z,10.60
2019-04-14T07:55:02.856Z,10.70
2019-04-14T07:57:41.531Z,10.70
2019-04-14T08:00:12.927Z,10.70
2019-04-14T08:02:44.770Z,10.70
2019-04-14T08:05:16.019Z,10.70
2019-04-14T08:07:45.019Z,10.80
2019-04-14T08:10:13.703Z,10.80
2019-04-14T08:12:41.173Z,10.90
2019-04-14T08:15:09.885Z,10.70
2019-04-14T08:17:37.269Z,10.90
2019-04-14T08:20:05.486Z,10.90
2019-04-14T08:22:32.947Z,10.80
2019-04-14T08:25:00.269Z,10.80
2019-04-14T08:27:27.683Z,10.90
2019-04-14T08:29:55.182Z,11.00
2019-04-14T08:32:22.638Z,11.00
2019-04-14T08:34:50.034Z,11.00
2019-04-14T08:37:18.291Z,11.10
2019-04-14T08:39:45.793Z,11.20
2019-04-14T08:42:29.861Z,11.10
2019-04-14T08:44:59.621Z,11.30
2019-04-14T08:47:36.213Z,11.50
2019-04-14T08:50:15.271Z,11.40
2019-04-14T08:52:54.298Z,11.20
2019-04-14T08:55:26.922Z,11.20
2019-04-14T08:57:59.121Z,11.30
2019-04-14T09:00:52.217Z,11.40
2019-04-14T09:03:39.387Z,11.40
2019-04-14T09:06:20.205Z,11.50
2019-04-14T09:08:56.043Z,11.70
2019-04-14T09:11:29.214Z,11.50
2019-04-14T09:13:56.644Z,11.30
2019-04-14T09:16:24.337Z,11.30
2019-04-14T09:18:53.670Z,11.30
2019-04-14T09:21:21.159Z,11.40
2019-04-14T09:23:48.691Z,11.40
2019-04-14T09:26:16.348Z,11.40
2019-04-14T09:28:43.745Z,11.20
2019-04-14T09:31:11.214Z,11.30
2019-04-14T09:33:38.579Z,11.30
2019-04-14T09:36:05.885Z,11.10
2019-04-14T09:38:33.196Z,11.10
2019-04-14T09:41:00.628Z,11.30
2019-04-14T09:43:28.006Z,11.40
2019-04-14T09:45:55.381Z,11.50
2019-04-14T09:48:23.918Z,11.50
2019-04-14T09:51:03.957Z,11.50
2019-04-14T09:53:20.768Z,11.60
2019-04-14T09:55:48.431Z,11.80
2019-04-14T09:58:15.950Z,11.80
2019-04-14T10:00:43.492Z,11.90
2019-04-14T10:03:11.323Z,11.70
2019-04-14T10:05:38.710Z,11.90
2019-04-14T10:08:06.123Z,11.90
2019-04-14T10:10:33.590Z,11.80
2019-04-14T10:13:02.903Z,11.90
2019-04-14T10:15:31.352Z,11.90
2019-04-14T10:17:58.710Z,11.90
2019-04-14T10:20:27.319Z,11.70
2019-04-14T10:22:54.622Z,11.80
2019-04-14T10:25:22.018Z,11.80
2019-04-14T10:27:49.420Z,11.80
2019-04-14T10:30:16.917Z,11.90
2019-04-14T10:32:46.063Z,11.60
2019-04-14T10:35:13.483Z,11.60
2019-04-14T10:37:40.804Z,11.50
2019-04-14T10:40:08.430Z,11.40
2019-04-14T10:42:36.034Z,11.50
2019-04-14T10:45:04.276Z,11.50
2019-04-14T10:47:31.971Z,11.60
2019-04-14T10:49:59.493Z,11.60
2019-04-14T10:52:26.841Z,11.70
2019-04-14T10:54:54.253Z,11.70
2019-04-14T10:57:21.640Z,11.80
2019-04-14T10:59:49.050Z,11.70
2019-04-14T11:02:16.549Z,11.60
2019-04-14T11:04:45.895Z,11.70
2019-04-14T11:07:21.746Z,11.80
2019-04-14T11:09:49.202Z,11.80
2019-04-14T11:12:16.654Z,11.70
2019-04-14T11:14:44.110Z,11.80
2019-04-14T11:17:11.447Z,11.80
2019-04-14T11:19:38.875Z,11.90
2019-04-14T11:22:06.255Z,11.90
2019-04-14T11:24:33.533Z,11.80
2019-04-14T11:27:00.927Z,11.80
2019-04-14T11:29:28.293Z,11.80
2019-04-14T11:32:15.362Z,11.90
2019-04-14T11:34:47.811Z,11.80
2019-04-14T11:37:44.148Z,11.90
2019-04-14T11:40:14.048Z,12.00
2019-04-14T11:42:51.832Z,12.00
2019-04-14T11:45:10.965Z,12.00
2019-04-14T11:47:38.396Z,12.00
2019-04-14T11:50:05.823Z,11.90
2019-04-14T11:52:35.669Z,11.70
2019-04-14T11:55:02.802Z,11.80
2019-04-14T11:57:30.326Z,11.90
2019-04-14T12:00:11.018Z,11.80
2019-04-14T12:02:51.278Z,11.80
2019-04-14T12:05:26.253Z,11.80
2019-04-14T12:08:05.761Z,11.80
2019-04-14T12:10:33.841Z,11.90
2019-04-14T12:13:01.327Z,11.90
2019-04-14T12:15:28.742Z,11.90
2019-04-14T12:17:56.039Z,11.80
2019-04-14T12:20:23.533Z,11.80
2019-04-14T12:22:51.117Z,11.60
2019-04-14T12:25:18.511Z,11.70
2019-04-14T12:27:46.533Z,11.70
2019-04-14T12:30:15.735Z,11.60
2019-04-14T12:32:43.231Z,11.60
2019-04-14T12:35:11.956Z,11.60
2019-04-14T12:37:39.511Z,11.40
2019-04-14T12:40:07.408Z,11.50
2019-04-14T12:42:53.095Z,11.50
2019-04-14T12:45:39.362Z,11.50
2019-04-14T12:48:32.286Z,11.40
2019-04-14T12:51:09.882Z,11.40
2019-04-14T12:53:37.245Z,11.20
2019-04-14T12:56:05.656Z,10.90
2019-04-14T12:58:40.858Z,10.90
2019-04-14T13:01:10.358Z,11.00
2019-04-14T13:03:41.729Z,11.00
2019-04-14T13:06:08.615Z,11.00
2019-04-14T13:08:36.091Z,11.10
2019-04-14T13:11:04.914Z,11.10
2019-04-14T13:13:32.362Z,11.20
2019-04-14T13:15:59.964Z,11.30
2019-04-14T13:18:27.378Z,11.50
2019-04-14T13:20:54.952Z,11.50
2019-04-14T13:23:22.312Z,11.60
2019-04-14T13:25:49.644Z,11.50
2019-04-14T13:28:16.905Z,11.60
2019-04-14T13:30:46.083Z,11.70
2019-04-14T13:33:13.585Z,11.60
2019-04-14T13:35:40.892Z,11.70
2019-04-14T13:38:08.363Z,11.70
2019-04-14T13:40:35.799Z,11.80
2019-04-14T13:43:03.256Z,11.50
2019-04-14T13:45:30.652Z,11.60
2019-04-14T13:47:58.074Z,11.70
2019-04-14T13:50:25.525Z,11.70
2019-04-14T13:52:52.903Z,11.80
2019-04-14T13:55:20.337Z,11.70
2019-04-14T13:57:47.694Z,11.70
2019-04-14T14:00:15.591Z,11.80
2019-04-14T14:02:43.082Z,11.70
2019-04-14T14:05:10.615Z,11.60
2019-04-14T14:07:38.171Z,11.60
2019-04-14T14:10:07.637Z,11.60
2019-04-14T14:12:55.030Z,11.70
2019-04-14T14:15:37.853Z,11.60
2019-04-14T14:18:27.953Z,11.60
2019-04-14T14:21:15.502Z,11.60
2019-04-14T14:23:53.172Z,11.60
2019-04-14T14:26:22.078Z,11.60
2019-04-14T14:28:49.600Z,11.50
2019-04-14T14:31:36.617Z,11.60
2019-04-14T14:34:05.951Z,11.70
2019-04-14T14:36:34.902Z,11.60
2019-04-14T14:39:04.605Z,11.60
2019-04-14T14:41:33.505Z,11.50
2019-04-14T14:44:00.997Z,11.50
2019-04-14T14:46:41.547Z,11.60
2019-04-14T14:49:13.640Z,11.70
2019-04-14T14:52:06.804Z,11.80
2019-04-14T14:54:34.326Z,11.70
2019-04-14T14:57:01.964Z,11.70
2019-04-14T14:59:29.452Z,11.70
2019-04-14T15:01:56.971Z,11.70
2019-04-14T15:04:24.526Z,11.80
2019-04-14T15:06:52.023Z,11.70
2019-04-14T15:09:19.407Z,11.60
2019-04-14T15:11:47.912Z,11.60
2019-04-14T15:14:17.197Z,11.60
2019-04-14T15:16:44.867Z,11.60
2019-04-14T15:19:12.219Z,11.60
2019-04-14T15:21:41.292Z,11.60
2019-04-14T15:24:08.647Z,11.70
2019-04-14T15:26:36.330Z,11.70
2019-04-14T15:29:03.987Z,11.80
2019-04-14T15:31:31.667Z,11.80
2019-04-14T15:33:59.311Z,11.80
2019-04-14T15:36:28.081Z,11.80
2019-04-14T15:38:56.874Z,11.70
2019-04-14T15:41:24.433Z,11.70
2019-04-14T15:43:52.209Z,11.70
2019-04-14T15:46:19.933Z,11.60
2019-04-14T15:48:47.518Z,11.60
2019-04-14T15:51:15.059Z,11.60
2019-04-14T15:53:42.703Z,11.60
2019-04-14T15:56:12.820Z,11.70
2019-04-14T15:59:03.135Z,11.70
2019-04-14T16:01:40.535Z,11.60
2019-04-14T16:04:18.205Z,11.70
2019-04-14T16:07:05.337Z,11.60
2019-04-14T16:09:38.087Z,11.70
2019-04-14T16:12:16.846Z,11.70
2019-04-14T16:15:19.233Z,11.80
2019-04-14T16:18:06.708Z,11.80
2019-04-14T16:20:36.219Z,11.80
2019-04-14T16:23:03.962Z,11.80
2019-04-14T16:25:40.953Z,11.80
2019-04-14T16:28:28.789Z,11.80
2019-04-14T16:31:14.617Z,11.90
2019-04-14T16:34:10.535Z,12.00
2019-04-14T16:36:38.211Z,12.00
2019-04-14T16:39:06.240Z,12.10
2019-04-14T16:41:34.388Z,12.10
2019-04-14T16:44:02.269Z,12.10
2019-04-14T16:46:30.004Z,12.10
2019-04-14T16:48:57.422Z,12.10
2019-04-14T16:51:32.487Z,12.20
2019-04-14T16:54:06.429Z,12.20
2019-04-14T16:57:02.388Z,12.20
2019-04-14T16:59:30.069Z,12.20
2019-04-14T17:02:10.196Z,12.20
2019-04-14T17:04:26.949Z,12.20
2019-04-14T17:06:54.271Z,12.20
2019-04-14T17:09:21.750Z,12.10
2019-04-14T17:11:49.327Z,12.10
2019-04-14T17:14:36.231Z,12.20
2019-04-14T17:17:23.155Z,12.30
2019-04-14T17:20:09.206Z,12.30
2019-04-14T17:23:05.546Z,12.30
2019-04-14T17:25:36.706Z,12.40
2019-04-14T17:28:18.621Z,12.40
2019-04-14T17:30:58.079Z,12.40
2019-04-14T17:33:33.348Z,12.40
2019-04-14T17:36:10.416Z,12.40
2019-04-14T17:38:56.491Z,12.40
2019-04-14T17:41:42.012Z,12.50
2019-04-14T17:44:25.139Z,12.50
2019-04-14T17:47:05.884Z,12.50
2019-04-14T17:49:48.399Z,12.50
2019-04-14T17:52:53.987Z,12.50
2019-04-14T17:55:34.672Z,12.50
2019-04-14T17:58:15.293Z,12.50
2019-04-14T18:00:52.236Z,12.50
2019-04-14T18:03:36.270Z,12.50
2019-04-14T18:06:13.817Z,12.50
2019-04-14T18:09:00.236Z,12.50
2019-04-14T18:11:48.023Z,12.50
2019-04-14T18:14:30.220Z,12.50
2019-04-14T18:17:22.940Z,12.50
2019-04-14T18:20:00.563Z,12.50
2019-04-14T18:22:27.956Z,12.50
2019-04-14T18:24:55.341Z,12.60
2019-04-14T18:27:22.759Z,12.60
2019-04-14T18:29:58.530Z,12.60
2019-04-14T18:32:54.943Z,12.60
2019-04-14T18:35:27.881Z,12.60
2019-04-14T18:38:06.477Z,12.60
2019-04-14T18:40:53.599Z,12.60
2019-04-14T18:43:43.216Z,12.70
2019-04-14T18:46:19.943Z,12.60
2019-04-14T18:49:06.747Z,12.60
2019-04-14T18:51:41.274Z,12.60
2019-04-14T18:54:27.637Z,12.60
2019-04-14T18:57:14.790Z,12.60
2019-04-14T18:59:56.218Z,12.60
2019-04-14T19:02:24.121Z,12.60
2019-04-14T19:04:51.567Z,12.60
2019-04-14T19:07:19.286Z,12.60
2019-04-14T19:09:46.826Z,12.70
2019-04-14T19:12:37.467Z,12.70
2019-04-14T19:15:15.525Z,12.70
2019-04-14T19:17:52.649Z,12.70
2019-04-14T19:20:20.906Z,12.70
2019-04-14T19:22:48.350Z,12.70
2019-04-14T19:25:15.692Z,12.70
2019-04-14T19:27:43.024Z,12.70
2019-04-14T19:30:10.842Z,12.70
2019-04-14T19:32:38.313Z,12.70
2019-04-14T19:35:06.125Z,12.70
2019-04-14T19:37:35.424Z,12.70
2019-04-14T19:40:03.420Z,12.70
2019-04-14T19:42:31.091Z,12.70
2019-04-14T19:44:58.554Z,12.70
2019-04-14T19:47:25.882Z,12.70
2019-04-14T19:49:53.350Z,12.70
2019-04-14T19:52:20.831Z,12.70
2019-04-14T19:54:48.230Z,12.70
2019-04-14T19:57:15.753Z,12.70
2019-04-14T19:59:43.172Z,12.70
2019-04-14T20:02:10.671Z,12.70
2019-04-14T20:04:38.420Z,12.70
2019-04-14T20:07:05.895Z,12.80
2019-04-14T20:09:33.363Z,12.70
2019-04-14T20:12:00.911Z,12.80
2019-04-14T20:14:28.456Z,12.80
2019-04-14T20:17:20.014Z,12.80
2019-04-14T20:20:14.221Z,12.80
2019-04-14T20:22:49.893Z,12.80
2019-04-14T20:25:33.246Z,12.80
2019-04-14T20:28:15.054Z,12.80
2019-04-14T20:30:46.269Z,12.80
2019-04-14T20:33:13.686Z,12.80
2019-04-14T20:35:41.109Z,12.80
2019-04-14T20:38:08.571Z,12.80
2019-04-14T20:40:36.128Z,12.80
2019-04-14T20:43:03.540Z,12.80
2019-04-14T20:45:31.036Z,12.80
2019-04-14T20:48:00.254Z,12.80
2019-04-14T20:50:27.664Z,12.80
2019-04-14T20:52:56.796Z,12.80
2019-04-14T20:55:24.192Z,12.80
2019-04-14T20:57:51.592Z,12.80
2019-04-14T21:00:21.276Z,12.80
2019-04-14T21:03:12.483Z,12.80
2019-04-14T21:05:55.477Z,12.80
2019-04-14T21:08:41.363Z,12.80
2019-04-14T21:11:14.448Z,12.80
2019-04-14T21:14:01.902Z,12.70
2019-04-14T21:16:50.171Z,12.70
2019-04-14T21:19:21.799Z,12.70
2019-04-14T21:22:14.926Z,12.70
2019-04-14T21:24:51.089Z,12.70
2019-04-14T21:27:38.208Z,12.70
2019-04-14T21:30:43.732Z,12.70
2019-04-14T21:33:28.375Z,12.70
2019-04-14T21:36:01.306Z,12.80
2019-04-14T21:38:46.899Z,12.80
2019-04-14T21:41:18.663Z,12.80
2019-04-14T21:43:46.092Z,12.70
2019-04-14T21:46:13.519Z,12.70
2019-04-14T21:48:41.951Z,12.70
2019-04-14T21:51:09.238Z,12.70
2019-04-14T21:53:36.659Z,12.70
2019-04-14T21:56:13.331Z,12.70
2019-04-14T21:58:43.753Z,12.80
2019-04-14T22:01:54.979Z,12.70
2019-04-14T22:04:41.323Z,12.80
2019-04-14T22:07:36.972Z,12.70
2019-04-14T22:10:18.708Z,12.70
2019-04-14T22:12:47.352Z,12.70
2019-04-14T22:15:14.807Z,12.70
2019-04-14T22:17:42.108Z,12.70
2019-04-14T22:20:09.623Z,12.70
2019-04-14T22:22:36.999Z,12.70
2019-04-14T22:25:04.884Z,12.70
2019-04-14T22:27:32.282Z,12.80
2019-04-14T22:29:59.577Z,12.80
2019-04-14T22:32:26.951Z,12.80
2019-04-14T22:34:54.261Z,12.80
2019-04-14T22:37:21.613Z,12.80
2019-04-14T22:39:50.177Z,12.80
2019-04-14T22:42:17.570Z,12.80
2019-04-14T22:44:45.015Z,12.80
2019-04-14T22:47:13.785Z,12.80
2019-04-14T22:49:41.160Z,12.90
2019-04-14T22:52:08.622Z,12.90
2019-04-14T22:54:36.024Z,12.80
2019-04-14T22:57:03.656Z,12.80
2019-04-14T22:59:30.956Z,12.80
2019-04-14T23:02:10.618Z,12.80
2019-04-14T23:04:48.140Z,12.80
2019-04-14T23:07:33.580Z,12.80
2019-04-14T23:10:08.015Z,12.80
2019-04-14T23:13:07.155Z,12.80
2019-04-14T23:15:53.108Z,12.70
2019-04-14T23:18:26.692Z,12.70
2019-04-14T23:21:12.644Z,12.60
2019-04-14T23:23:54.291Z,12.60
2019-04-14T23:26:23.051Z,12.50
2019-04-14T23:28:50.376Z,12.50
2019-04-14T23:31:17.793Z,12.50
2019-04-14T23:33:45.245Z,12.50
2019-04-14T23:36:12.672Z,12.50
2019-04-14T23:38:39.991Z,12.60
2019-04-14T23:41:07.310Z,12.60
2019-04-14T23:43:35.007Z,12.60
2019-04-14T23:46:02.400Z,12.60
2019-04-14T23:48:29.805Z,12.60
2019-04-14T23:50:58.563Z,12.60
2019-04-14T23:53:25.846Z,12.60
2019-04-14T23:55:54.332Z,12.60
2019-04-14T23:58:21.824Z,12.60
